ADDS METAR Data INFO
IDs: Format: Raw Decoded Include TAF

Data at: 0353 UTC 20 Feb 2018

KDNN 200335Z AUTO 20003KT 10SM OVC070 15/14 A3031 RMK AO2
KDNN 200315Z AUTO 18003KT 10SM SCT055 OVC070 15/14 A3031 RMK AO2
KDNN 200255Z AUTO 21003KT 10SM SCT055 BKN070 15/14 A3031 RMK AO2
KDNN 200235Z AUTO 22004KT 10SM BKN070 15/14 A3031 RMK AO2
KDNN 200215Z AUTO 22003KT 10SM OVC070 15/14 A3030 RMK AO2
KDNN 200155Z AUTO 00000KT 10SM OVC070 15/14 A3030 RMK AO2
KDNN 200135Z AUTO 00000KT 10SM BKN070 15/14 A3029 RMK AO2
KDNN 200115Z AUTO 00000KT 10SM SCT070 15/14 A3029 RMK AO2
KDNN 200055Z AUTO 17004KT 10SM CLR 16/15 A3029 RMK AO2
KDNN 200035Z AUTO 00000KT 10SM CLR 16/15 A3028 RMK AO2
KDNN 200015Z AUTO 18003KT 10SM CLR 17/15 A3028 RMK AO2
KDNN 192355Z AUTO 18006KT 10SM SCT055 SCT070 17/15 A3027 RMK AO2
KDNN 192335Z AUTO 16005KT 10SM BKN055 17/15 A3026 RMK AO2
KDNN 192315Z AUTO 16005KT 10SM SCT055 18/15 A3026 RMK AO2
KDNN 192255Z AUTO 15009KT 10SM CLR 18/15 A3025 RMK AO2
KDNN 192235Z AUTO 13010KT 10SM CLR 18/15 A3025 RMK AO2
KDNN 192215Z AUTO 14008KT 10SM CLR 19/15 A3025 RMK AO2
KDNN 192155Z AUTO 13008KT 10SM CLR 19/15 A3025 RMK AO2
KDNN 192135Z AUTO 13012G15KT 10SM SCT070 19/15 A3025 RMK AO2
KDNN 192115Z AUTO 15009G14KT 10SM BKN070 18/15 A3025 RMK AO2
KDNN 192055Z AUTO 15012G16KT 10SM SCT020 SCT026 OVC070 18/15 A3026 RMK AO2
KDNN 192035Z AUTO 14008KT 10SM BKN020 BKN026 OVC070 18/15 A3027 RMK AO2
KDNN 192015Z AUTO 15008G16KT 10SM BKN022 OVC026 18/15 A3027 RMK AO2
KDNN 191955Z AUTO 15007KT 10SM OVC020 18/15 A3027 RMK AO2
KDNN 191935Z AUTO 15008KT 10SM BKN018 OVC024 17/15 A3028 RMK AO2
KDNN 191915Z AUTO 14011G15KT 10SM BKN018 BKN024 OVC030 17/15 A3028 RMK AO2
KDNN 191855Z AUTO 16006G17KT 10SM BKN018 OVC030 18/15 A3029 RMK AO2
KDNN 191835Z AUTO 15009KT 10SM OVC018 17/15 A3030 RMK AO2
KDNN 191815Z AUTO 15012G17KT 10SM OVC018 18/15 A3030 RMK AO2
KDNN 191755Z AUTO 17004KT 10SM OVC018 18/15 A3031 RMK AO2
KDNN 191735Z AUTO 16006KT 10SM OVC018 17/15 A3032 RMK AO2
KDNN 191715Z AUTO 16007KT 10SM OVC016 17/15 A3033 RMK AO2
KDNN 191655Z AUTO 16006KT 10SM OVC016 16/15 A3034 RMK AO2
KDNN 191635Z AUTO 00000KT 10SM OVC016 16/14 A3034 RMK AO2
KDNN 191615Z AUTO 17004KT 10SM OVC016 16/14 A3035 RMK AO2
KDNN 191555Z AUTO 00000KT 10SM OVC016 16/14 A3035 RMK AO2
KDNN 191535Z AUTO 00000KT 10SM OVC016 15/14 A3034 RMK AO2
KDNN 191515Z AUTO 00000KT 10SM OVC016 15/13 A3035 RMK AO2
KDNN 191455Z AUTO 00000KT 10SM OVC016 15/13 A3035 RMK AO2
KDNN 191435Z AUTO 00000KT 10SM OVC014 14/13 A3034 RMK AO2
KDNN 191415Z AUTO 00000KT 10SM OVC014 14/13 A3033 RMK AO2
KDNN 191355Z AUTO 00000KT 10SM OVC016 14/13 A3033 RMK AO2
KDNN 191335Z AUTO 00000KT 10SM OVC016 14/13 A3033 RMK AO2
KDNN 191315Z AUTO 00000KT 10SM OVC016 14/13 A3032 RMK AO2
KDNN 191255Z AUTO 00000KT 10SM OVC016 14/13 A3031 RMK AO2
KDNN 191235Z AUTO 00000KT 10SM OVC016 14/13 A3031 RMK AO2
KDNN 191215Z AUTO 00000KT 10SM OVC016 14/13 A3030 RMK AO2
KDNN 191155Z AUTO 00000KT 10SM OVC014 14/13 A3030 RMK AO2
KDNN 191135Z AUTO 00000KT 10SM OVC014 14/13 A3030 RMK AO2
KDNN 191115Z AUTO 19003KT 10SM OVC014 14/13 A3030 RMK AO2
KDNN 191055Z AUTO 00000KT 10SM OVC014 14/13 A3029 RMK AO2
KDNN 191035Z AUTO 19003KT 10SM OVC014 14/13 A3029 RMK AO2
KDNN 191015Z AUTO 20004KT 10SM OVC014 14/13 A3029 RMK AO2
KDNN 190955Z AUTO 17004KT 10SM OVC014 14/13 A3028 RMK AO2
KDNN 190935Z AUTO 18004KT 10SM OVC014 14/13 A3028 RMK AO2
KDNN 190915Z AUTO 17005KT 10SM OVC014 14/13 A3028 RMK AO2
KDNN 190855Z AUTO 17004KT 10SM OVC014 14/13 A3027 RMK AO2
KDNN 190835Z AUTO 18003KT 10SM OVC014 13/13 A3027 RMK AO2
KDNN 190815Z AUTO 00000KT 10SM OVC016 13/13 A3027 RMK AO2
KDNN 190800Z AUTO 00000KT 10SM OVC016 13/13 A3027 RMK AO2
KDNN 190735Z AUTO 21003KT 10SM OVC018 13/13 A3026 RMK AO2
KDNN 190715Z AUTO 19003KT 10SM OVC020 14/13 A3026 RMK AO2
KDNN 190655Z AUTO 19008KT 10SM OVC020 14/13 A3025 RMK AO2
KDNN 190635Z AUTO 17007KT 10SM OVC020 14/13 A3025 RMK AO2
KDNN 190615Z AUTO 17004KT 10SM BKN022 OVC028 14/13 A3025 RMK AO2
KDNN 190555Z AUTO 17005KT 10SM BKN022 OVC027 14/13 A3026 RMK AO2
KDNN 190535Z AUTO 16009KT 10SM -DZ BKN022 OVC029 14/14 A3026 RMK AO2
KDNN 190515Z AUTO 19005KT 10SM DZ SCT008 OVC022 13/13 A3026 RMK AO2
KDNN 190455Z AUTO 18005KT 10SM -RA SCT006 OVC020 13/13 A3027 RMK AO2
KDNN 190435Z AUTO 15004KT 7SM DZ SCT006 OVC020 13/13 A3026 RMK AO2
KDNN 190415Z AUTO 16003KT 7SM RA SCT004 OVC022 13/13 A3027 RMK AO2
KDNN 190355Z AUTO 16004KT 7SM DZ BKN004 OVC022 13/13 A3027 RMK AO2
KDNN 190335Z AUTO 15004KT 4SM DZ SCT006 BKN012 OVC022 13/13 A3027 RMK AO2
KDNN 190315Z AUTO 17003KT 7SM SCT006 SCT012 OVC024 13/13 A3027 RMK AO2
KDNN 190255Z AUTO 16005KT 7SM RA SCT006 SCT014 OVC024 14/13 A3027 RMK AO2
KDNN 190235Z AUTO 17005KT 10SM OVC026 14/13 A3027 RMK AO2
KDNN 190215Z AUTO 17004KT 10SM OVC026 14/13 A3027 RMK AO2
KDNN 190155Z AUTO 17004KT 10SM SCT024 OVC032 14/13 A3026 RMK AO2
KDNN 190135Z AUTO 17004KT 7SM DZ OVC036 14/13 A3025 RMK AO2
KDNN 190115Z AUTO 16006KT 10SM DZ OVC038 15/12 A3025 RMK AO2
KDNN 190055Z AUTO 15005KT 10SM RA OVC041 17/11 A3024 RMK AO2
KDNN 190035Z AUTO 15003KT 10SM OVC043 17/10 A3024 RMK AO2
KDNN 190015Z AUTO 00000KT 10SM BKN043 OVC049 17/10 A3023 RMK AO2
KDNN 182355Z AUTO 16003KT 10SM OVC048 17/09 A3022 RMK AO2
KDNN 182335Z AUTO 00000KT 10SM OVC050 17/08 A3021 RMK AO2
KDNN 182315Z AUTO 00000KT 10SM OVC060 17/08 A3022 RMK AO2
KDNN 182255Z AUTO 00000KT 10SM BKN070 OVC120 18/08 A3021 RMK AO2
KDNN 182235Z AUTO 00000KT 10SM SCT070 BKN120 18/08 A3021 RMK AO2
KDNN 182215Z AUTO 21003KT 10SM SCT070 SCT120 18/08 A3021 RMK AO2
KDNN 182155Z AUTO 23003KT 10SM SCT110 20/08 A3021 RMK AO2
KDNN 182135Z AUTO 00000KT 10SM SCT120 19/08 A3021 RMK AO2
KDNN 182115Z AUTO 17005KT 10SM CLR 19/08 A3021 RMK AO2
KDNN 182055Z AUTO 19005KT 10SM CLR 18/07 A3021 RMK AO2
KDNN 182035Z AUTO 14003KT 10SM CLR 18/07 A3021 RMK AO2
KDNN 182015Z AUTO 18003KT 10SM CLR 18/07 A3022 RMK AO2
KDNN 181955Z AUTO 00000KT 10SM CLR 18/06 A3022 RMK AO2
KDNN 181935Z AUTO 00000KT 10SM CLR 17/06 A3023 RMK AO2
KDNN 181915Z AUTO 12003KT 10SM CLR 17/06 A3025 RMK AO2
KDNN 181855Z AUTO 00000KT 10SM CLR 16/06 A3026 RMK AO2
KDNN 181835Z AUTO 00000KT 10SM CLR 16/06 A3027 RMK AO2
KDNN 181815Z AUTO 00000KT 10SM CLR 15/06 A3028 RMK AO2
KDNN 181755Z AUTO 00000KT 10SM CLR 15/06 A3028 RMK AO2
KDNN 181735Z AUTO 00000KT 10SM CLR 13/06 A3029 RMK AO2
KDNN 181715Z AUTO 00000KT 10SM CLR 13/05 A3031 RMK AO2
KDNN 181655Z AUTO 31003KT 10SM CLR 12/06 A3031 RMK AO2
KDNN 181635Z AUTO 00000KT 10SM CLR 12/05 A3032 RMK AO2
KDNN 181615Z AUTO 33003KT 10SM CLR 11/06 A3032 RMK AO2
KDNN 181555Z AUTO 00000KT 10SM CLR 10/05 A3033 RMK AO2